Terminal Aerodrome Forecast
Issued by NWS Flagstaff, AZ

Home | Current Version | Previous Version | Text Only | Print | Product List | Glossary On
Versions: 1 2 3 4 5 6 7 8 9 10 11 12 13 14 15 16 17
000
FTUS45 KFGZ 161100
TAFFLG
TAF
KFLG 161139Z 1612/1712 VRB03KT P6SM FEW110 FEW200
     FM161800 15008KT P6SM SCT050 SCT200
      TEMPO 1618/1622 VRB15G30KT 5SM TSRA BKN050CB
     FM170000 VRB05KT P6SM SCT050 OVC120 PROB30 1700/1706 4SM -TSRA
      BKN050CB
     FM170600 VRB02KT P6SM BKN050 PROB30 1706/1712 4SM -TSRA
      BKN030CB=

USA.gov is the U.S. government's official web portal to all federal, state and local government web resources and services.